Time;durP1;ratioP1;P1;durP2;ratioP2;P2;SDS_P1;SDS_P2;PMS_P1;PMS_P2;Temp;Humidity;BMP_temperature;BMP_pressure;BME280_temperature;BME280_humidity;BME280_pressure;Samples;Min_cycle;Max_cycle;Signal;HPM_P1;HPM_P2
2022/08/09 00:01:56;;;;;;;4.65;2.10;;;25.10;65.60;;;;;;4997400;28;20091;-60
2022/08/09 00:04:21;;;;;;;7.90;2.20;;;25.10;65.70;;;;;;5012959;28;20371;-60
2022/08/09 00:06:47;;;;;;;8.02;2.30;;;25.10;65.80;;;;;;4997392;28;20022;-60
2022/08/09 00:09:12;;;;;;;8.52;2.13;;;25.10;65.80;;;;;;4996889;28;20068;-60
2022/08/09 00:11:38;;;;;;;8.50;2.20;;;25.00;65.80;;;;;;4996687;28;20105;-60
2022/08/09 00:14:04;;;;;;;3.22;1.98;;;25.00;65.80;;;;;;4994815;28;20124;-60
2022/08/09 00:16:29;;;;;;;10.38;2.55;;;25.00;65.80;;;;;;4998094;28;20653;-61
2022/08/09 00:18:55;;;;;;;4.47;2.17;;;25.00;66.00;;;;;;5011635;28;20034;-60
2022/08/09 00:21:20;;;;;;;5.28;2.22;;;24.90;66.00;;;;;;4997185;28;20026;-60
2022/08/09 00:23:46;;;;;;;8.77;2.38;;;24.90;66.00;;;;;;4998708;28;20444;-60
2022/08/09 00:26:11;;;;;;;7.63;2.17;;;24.90;66.20;;;;;;4998232;28;20088;-60
2022/08/09 00:28:37;;;;;;;6.35;2.10;;;24.80;66.20;;;;;;4996430;28;20048;-60
2022/08/09 00:31:03;;;;;;;6.63;2.10;;;24.80;66.30;;;;;;4996186;28;20038;-60
2022/08/09 00:33:29;;;;;;;5.72;1.83;;;24.80;66.30;;;;;;4996461;28;20026;-60
2022/08/09 00:35:54;;;;;;;5.68;2.10;;;24.80;66.30;;;;;;4999328;28;20038;-60
2022/08/09 00:38:20;;;;;;;4.65;1.90;;;24.80;66.30;;;;;;4998036;28;20190;-63
2022/08/09 00:40:46;;;;;;;3.60;1.90;;;24.80;66.50;;;;;;4995280;28;20026;-60
2022/08/09 00:43:12;;;;;;;5.65;2.03;;;24.70;66.50;;;;;;4999609;28;20050;-60
2022/08/09 00:45:37;;;;;;;4.45;1.98;;;24.70;66.50;;;;;;4997443;28;20484;-60
2022/08/09 00:48:03;;;;;;;4.20;1.80;;;24.60;66.60;;;;;;4995834;28;20046;-60
2022/08/09 00:50:29;;;;;;;5.40;1.98;;;24.60;66.70;;;;;;4980503;28;20086;-60
2022/08/09 00:52:54;;;;;;;3.72;1.73;;;24.60;66.80;;;;;;4998100;28;20460;-60
2022/08/09 00:55:20;;;;;;;3.38;1.90;;;24.50;66.80;;;;;;5001052;28;20033;-59
2022/08/09 00:57:45;;;;;;;3.63;1.83;;;24.50;66.90;;;;;;4984429;28;20057;-60
2022/08/09 01:00:11;;;;;;;3.47;1.85;;;24.50;67.00;;;;;;4998670;28;20034;-61
2022/08/09 01:02:45;;;;;;;2.65;1.85;;;24.50;67.10;;;;;;5000415;28;20804;-60
2022/08/09 01:05:32;;;;;;;4.50;1.70;;;24.50;67.10;;;;;;4984021;28;20017;-61
2022/08/09 01:08:07;;;;;;;8.57;2.15;;;24.40;67.10;;;;;;4984152;28;20046;-60
2022/08/09 01:10:36;;;;;;;;;;;24.40;67.10;;;;;;4999471;28;20451;-60
2022/08/09 01:13:22;;;;;;;4.65;2.05;;;24.40;67.20;;;;;;4999538;28;19972;-60
2022/08/09 01:15:48;;;;;;;2.88;1.80;;;24.40;67.30;;;;;;5001172;28;20044;-61
2022/08/09 01:18:18;;;;;;;7.97;2.40;;;24.30;67.40;;;;;;5000323;28;20026;-61
2022/08/09 01:21:05;;;;;;;2.38;1.73;;;24.30;67.40;;;;;;4999656;28;20367;-60
2022/08/09 01:23:39;;;;;;;4.60;1.80;;;24.30;67.40;;;;;;5000551;28;20441;-60
2022/08/09 01:26:47;;;;;;;3.67;1.77;;;24.20;67.40;;;;;;5000871;28;20525;-60
2022/08/09 01:29:13;;;;;;;4.53;1.85;;;24.20;67.60;;;;;;4997954;28;20044;-60
2022/08/09 01:31:39;;;;;;;4.15;2.20;;;24.10;67.60;;;;;;4980810;28;20433;-61
2022/08/09 01:34:05;;;;;;;6.35;2.03;;;24.10;67.70;;;;;;4967911;28;20021;-60
2022/08/09 01:36:30;;;;;;;5.80;2.35;;;24.10;67.80;;;;;;4984168;28;20092;-60
2022/08/09 01:38:56;;;;;;;6.07;2.45;;;24.10;67.70;;;;;;5017978;28;20521;-60
2022/08/09 01:41:23;;;;;;;6.45;2.30;;;24.10;67.80;;;;;;5001602;28;20084;-60
2022/08/09 01:43:53;;;;;;;37.80;4.63;;;24.10;67.70;;;;;;5000229;28;20608;-60
2022/08/09 01:46:30;;;;;;;28.23;4.38;;;24.10;67.70;;;;;;4983389;28;20473;-60
2022/08/09 01:49:01;;;;;;;15.48;3.53;;;24.10;67.90;;;;;;4999418;28;20026;-61
2022/08/09 01:51:27;;;;;;;19.08;4.18;;;24.00;68.00;;;;;;4998858;28;20316;-60
2022/08/09 01:53:54;;;;;;;19.65;3.67;;;23.90;68.00;;;;;;4997962;28;20103;-61
2022/08/09 01:56:20;;;;;;;18.20;3.80;;;23.90;68.10;;;;;;4994538;28;20037;-60
2022/08/09 01:58:45;;;;;;;8.52;2.75;;;23.90;68.10;;;;;;4981212;28;20026;-61
2022/08/09 02:01:11;;;;;;;13.80;3.15;;;23.90;68.20;;;;;;4981141;28;20041;-60
2022/08/09 02:03:36;;;;;;;17.25;3.63;;;23.90;68.10;;;;;;4982519;28;20037;-60
2022/08/09 02:06:02;;;;;;;11.90;2.30;;;23.90;68.10;;;;;;5015899;28;20045;-60
2022/08/09 02:08:27;;;;;;;13.23;2.85;;;23.80;68.10;;;;;;5014606;28;20041;-61
2022/08/09 02:10:53;;;;;;;10.40;2.65;;;23.80;68.30;;;;;;4998493;28;20056;-60
2022/08/09 02:13:20;;;;;;;10.65;2.83;;;23.80;68.20;;;;;;4998281;28;20034;-60
2022/08/09 02:15:48;;;;;;;9.13;2.63;;;23.70;68.30;;;;;;4999647;28;20022;-60
2022/08/09 02:18:15;;;;;;;10.80;2.85;;;23.70;68.40;;;;;;4981542;28;20049;-61
2022/08/09 02:20:43;;;;;;;11.70;2.17;;;23.70;68.50;;;;;;4999127;28;20026;-60
2022/08/09 02:23:11;;;;;;;6.65;2.45;;;23.70;68.60;;;;;;4998535;28;20465;-61
2022/08/09 02:25:38;;;;;;;16.20;2.53;;;23.60;68.60;;;;;;4998796;28;20041;-60
2022/08/09 02:28:34;;;;;;;13.07;2.58;;;23.60;68.60;;;;;;4999403;28;20030;-61
2022/08/09 02:31:29;;;;;;;9.52;3.10;;;23.60;68.60;;;;;;5000148;28;20042;-61
2022/08/09 02:33:56;;;;;;;10.73;2.88;;;23.60;68.60;;;;;;4988510;28;20255;-60
2022/08/09 02:36:28;;;;;;;8.25;2.50;;;23.50;68.70;;;;;;5014218;28;20018;-61
2022/08/09 02:38:55;;;;;;;15.65;2.72;;;23.50;68.70;;;;;;4999092;28;20037;-60
2022/08/09 02:41:25;;;;;;;10.27;2.40;;;23.50;68.70;;;;;;4996783;28;20095;-60
2022/08/09 02:43:52;;;;;;;5.95;2.28;;;23.50;68.80;;;;;;5014687;28;20046;-61
2022/08/09 02:46:17;;;;;;;8.10;2.60;;;23.50;68.80;;;;;;4981472;28;20033;-60
2022/08/09 02:48:43;;;;;;;6.13;2.10;;;23.50;68.90;;;;;;4979612;28;20095;-61
2022/08/09 02:51:10;;;;;;;6.80;2.55;;;23.50;69.00;;;;;;4981399;28;20116;-60
2022/08/09 02:53:38;;;;;;;8.20;2.30;;;23.40;69.00;;;;;;5016242;28;20014;-60
2022/08/09 02:56:04;;;;;;;8.85;2.60;;;23.40;69.00;;;;;;5015900;28;20053;-60
2022/08/09 02:58:31;;;;;;;7.78;2.17;;;23.40;69.10;;;;;;4983565;28;20336;-60
2022/08/09 03:00:57;;;;;;;5.07;2.10;;;23.30;69.10;;;;;;5011706;28;20026;-60
2022/08/09 03:03:22;;;;;;;6.93;2.17;;;23.30;69.10;;;;;;4982490;28;20037;-60
2022/08/09 03:05:49;;;;;;;4.25;2.17;;;23.30;69.10;;;;;;4999318;28;20273;-60
2022/08/09 03:08:14;;;;;;;4.35;2.17;;;23.20;69.10;;;;;;4981504;28;20038;-60
2022/08/09 03:10:40;;;;;;;6.57;2.42;;;23.20;69.10;;;;;;4999091;28;20363;-60
2022/08/09 03:13:06;;;;;;;4.78;1.92;;;23.20;69.20;;;;;;4996899;28;20294;-61
2022/08/09 03:15:32;;;;;;;6.00;2.40;;;23.20;69.10;;;;;;4980287;28;20037;-60
2022/08/09 03:17:57;;;;;;;5.30;2.40;;;23.20;69.10;;;;;;4977406;28;20042;-60
2022/08/09 03:20:23;;;;;;;2.55;1.55;;;23.20;69.20;;;;;;4982371;28;20080;-61
2022/08/09 03:22:48;;;;;;;3.40;2.13;;;23.10;69.20;;;;;;4998371;28;20192;-60
2022/08/09 03:25:14;;;;;;;7.40;1.92;;;23.10;69.10;;;;;;4999287;28;20034;-61
2022/08/09 03:27:43;;;;;;;5.63;2.13;;;23.10;69.10;;;;;;4979952;28;20156;-60
2022/08/09 03:30:10;;;;;;;4.25;1.88;;;23.00;69.10;;;;;;5015240;28;20064;-61
2022/08/09 03:32:36;;;;;;;1.95;1.52;;;23.10;69.20;;;;;;4994604;28;20046;-60
2022/08/09 03:35:01;;;;;;;7.57;1.45;;;23.10;69.20;;;;;;4980325;28;20034;-61
2022/08/09 03:37:27;;;;;;;3.83;1.75;;;23.10;69.20;;;;;;4995875;28;22107;-60
2022/08/09 03:39:52;;;;;;;3.80;1.88;;;23.00;69.30;;;;;;5012462;28;20316;-60
2022/08/09 03:42:18;;;;;;;5.30;1.90;;;23.00;69.40;;;;;;4997993;28;20517;-61
2022/08/09 03:44:43;;;;;;;6.30;1.60;;;23.00;69.40;;;;;;4997366;28;21164;-60
2022/08/09 03:47:09;;;;;;;2.83;1.80;;;22.90;69.40;;;;;;4998076;28;20030;-61
2022/08/09 03:49:34;;;;;;;5.28;2.00;;;22.90;69.50;;;;;;4996824;28;20044;-60
2022/08/09 03:52:00;;;;;;;3.92;1.70;;;22.90;69.50;;;;;;4997193;28;20416;-61
2022/08/09 03:54:29;;;;;;;2.88;1.73;;;22.80;69.60;;;;;;5012314;28;20022;-61
2022/08/09 03:56:55;;;;;;;3.30;1.65;;;22.80;69.50;;;;;;4995410;28;20111;-61
2022/08/09 03:59:20;;;;;;;2.78;1.92;;;22.80;69.60;;;;;;5012351;28;20104;-60
2022/08/09 04:01:46;;;;;;;3.35;1.60;;;22.80;69.70;;;;;;4996600;28;20064;-60
2022/08/09 04:04:12;;;;;;;4.50;2.00;;;22.80;69.70;;;;;;4997933;28;20447;-60
2022/08/09 04:06:38;;;;;;;4.82;1.75;;;22.80;69.70;;;;;;5012565;28;20033;-60
2022/08/09 04:09:06;;;;;;;7.93;2.05;;;22.80;69.70;;;;;;4980589;28;20069;-60
2022/08/09 04:12:09;;;;;;;2.85;1.90;;;22.70;69.70;;;;;;4996129;28;20373;-59
2022/08/09 04:14:38;;;;;;;3.25;1.58;;;22.70;69.70;;;;;;4956797;28;20084;-59
2022/08/09 04:17:04;;;;;;;3.25;1.90;;;22.70;69.70;;;;;;4985626;28;20045;-61
2022/08/09 04:19:29;;;;;;;5.90;1.75;;;22.70;69.70;;;;;;5027024;28;20052;-60
2022/08/09 04:21:55;;;;;;;3.13;1.70;;;22.70;69.80;;;;;;4998100;28;20067;-60
2022/08/09 04:24:20;;;;;;;4.57;1.75;;;22.60;69.80;;;;;;4998720;28;20045;-60
2022/08/09 04:26:46;;;;;;;2.58;1.80;;;22.60;69.80;;;;;;4995484;28;20034;-61
2022/08/09 04:29:11;;;;;;;3.50;1.60;;;22.60;69.90;;;;;;4997163;28;20315;-60
2022/08/09 04:31:37;;;;;;;3.78;1.70;;;22.60;70.00;;;;;;4996043;28;20072;-60
2022/08/09 04:34:02;;;;;;;5.00;1.80;;;22.60;70.00;;;;;;4996560;28;20029;-60
2022/08/09 04:36:29;;;;;;;2.78;1.58;;;22.60;70.10;;;;;;4980194;28;20045;-60
2022/08/09 04:38:59;;;;;;;5.07;1.63;;;22.60;70.20;;;;;;4978296;28;20076;-60
2022/08/09 04:41:24;;;;;;;2.55;1.65;;;22.50;70.20;;;;;;4983277;28;20574;-60
2022/08/09 04:43:51;;;;;;;3.80;1.90;;;22.50;70.30;;;;;;4997477;28;20040;-60
2022/08/09 04:46:17;;;;;;;2.05;1.75;;;22.40;70.20;;;;;;4994554;28;20025;-60
2022/08/09 04:48:42;;;;;;;2.35;1.42;;;22.50;70.40;;;;;;4996915;28;20100;-60
2022/08/09 04:51:08;;;;;;;4.68;1.80;;;22.40;70.40;;;;;;4997658;28;20654;-60
2022/08/09 04:53:33;;;;;;;2.53;1.70;;;22.40;70.40;;;;;;4999309;28;20041;-60
2022/08/09 04:55:59;;;;;;;1.80;1.70;;;22.40;70.50;;;;;;4998351;28;20393;-60
2022/08/09 04:58:25;;;;;;;2.88;1.83;;;22.40;70.60;;;;;;4997678;28;20026;-60
2022/08/09 05:00:51;;;;;;;2.85;2.13;;;22.40;70.70;;;;;;4996738;28;20029;-60
2022/08/09 05:03:17;;;;;;;2.95;1.63;;;22.30;70.60;;;;;;4977731;28;20386;-60
2022/08/09 05:05:43;;;;;;;2.42;1.60;;;22.30;70.60;;;;;;4998223;28;20100;-59
2022/08/09 05:08:08;;;;;;;2.55;1.88;;;22.30;70.60;;;;;;4998712;28;20061;-60
2022/08/09 05:10:34;;;;;;;10.05;1.75;;;22.30;70.60;;;;;;4998381;28;20409;-60
2022/08/09 05:12:59;;;;;;;3.25;2.00;;;22.30;70.70;;;;;;4996005;28;20030;-60
2022/08/09 05:15:27;;;;;;;3.67;1.88;;;22.30;70.80;;;;;;4997848;28;20113;-60
2022/08/09 05:17:52;;;;;;;3.22;1.70;;;22.30;70.80;;;;;;4992730;28;20024;-60
2022/08/09 05:20:18;;;;;;;4.22;1.90;;;22.40;70.80;;;;;;4995631;28;20034;-59
2022/08/09 05:22:43;;;;;;;2.00;1.90;;;22.30;70.60;;;;;;4980293;28;20041;-60
2022/08/09 05:25:09;;;;;;;2.83;1.77;;;22.30;70.70;;;;;;4997775;28;20471;-60
2022/08/09 05:27:35;;;;;;;3.28;2.00;;;22.30;70.60;;;;;;4996340;28;20061;-60
2022/08/09 05:30:00;;;;;;;2.92;1.90;;;22.30;70.60;;;;;;4996373;28;20045;-59
2022/08/09 05:32:26;;;;;;;2.35;1.63;;;22.30;70.60;;;;;;4994206;28;20220;-60
2022/08/09 05:34:51;;;;;;;2.47;1.60;;;22.30;70.70;;;;;;4993411;28;20445;-59
2022/08/09 05:37:17;;;;;;;1.58;1.48;;;22.20;70.60;;;;;;4995100;28;20038;-60
2022/08/09 05:39:42;;;;;;;5.30;1.75;;;22.20;70.60;;;;;;4998594;28;20026;-60
2022/08/09 05:42:08;;;;;;;2.60;1.60;;;22.20;70.60;;;;;;4999762;28;20572;-59
2022/08/09 05:44:34;;;;;;;2.10;1.70;;;22.20;70.60;;;;;;4966938;28;20671;-60
2022/08/09 05:46:59;;;;;;;1.70;1.60;;;22.20;70.70;;;;;;4997162;28;20040;-60
2022/08/09 05:49:25;;;;;;;1.60;1.50;;;22.20;70.60;;;;;;4999921;28;20344;-60
2022/08/09 05:51:50;;;;;;;2.28;1.65;;;22.10;70.70;;;;;;4996577;28;20104;-60
2022/08/09 05:54:16;;;;;;;3.88;1.80;;;22.10;70.60;;;;;;4999721;28;20402;-59
2022/08/09 05:56:41;;;;;;;1.75;1.65;;;22.10;70.70;;;;;;4997991;28;20548;-60
2022/08/09 05:59:07;;;;;;;7.43;1.80;;;22.20;70.80;;;;;;4998291;28;20076;-60
2022/08/09 06:01:32;;;;;;;2.78;1.60;;;22.10;70.70;;;;;;4995846;28;20024;-60
2022/08/09 06:03:58;;;;;;;2.13;1.70;;;22.10;70.90;;;;;;4996133;28;20157;-60
2022/08/09 06:06:24;;;;;;;4.15;1.70;;;22.10;71.30;;;;;;4994949;28;20038;-60
2022/08/09 06:08:49;;;;;;;5.32;2.10;;;22.20;71.60;;;;;;4996509;28;20030;-60
2022/08/09 06:11:15;;;;;;;1.90;1.50;;;22.00;71.90;;;;;;4997170;28;20607;-60
2022/08/09 06:13:40;;;;;;;4.95;2.13;;;21.90;71.90;;;;;;4996060;28;20030;-60
2022/08/09 06:16:06;;;;;;;4.88;1.92;;;21.80;72.20;;;;;;4992564;28;20049;-60
2022/08/09 06:18:32;;;;;;;2.83;2.00;;;21.80;72.70;;;;;;4992777;28;20053;-63
2022/08/09 06:20:58;;;;;;;6.70;2.50;;;21.80;73.00;;;;;;4980898;28;20038;-60
2022/08/09 06:23:24;;;;;;;8.13;2.00;;;21.70;73.30;;;;;;4997840;28;20032;-60
2022/08/09 06:25:50;;;;;;;2.50;2.05;;;21.70;73.60;;;;;;4999048;28;20478;-60
2022/08/09 06:28:15;;;;;;;3.10;2.03;;;21.60;73.80;;;;;;5001042;28;20049;-61
2022/08/09 06:30:41;;;;;;;4.25;2.30;;;21.60;74.00;;;;;;5002280;28;20057;-60
2022/08/09 06:33:07;;;;;;;3.03;2.00;;;21.50;74.30;;;;;;4986320;28;20173;-60
2022/08/09 06:35:33;;;;;;;4.38;1.90;;;21.50;74.50;;;;;;5000586;28;20038;-60
2022/08/09 06:37:58;;;;;;;7.07;2.08;;;21.50;74.60;;;;;;4981391;28;20034;-60
2022/08/09 06:40:24;;;;;;;5.82;2.10;;;21.50;74.80;;;;;;4999793;28;20084;-60
2022/08/09 06:42:49;;;;;;;2.25;1.83;;;21.50;74.90;;;;;;4971271;28;20292;-61
2022/08/09 06:45:15;;;;;;;3.42;2.00;;;21.50;74.90;;;;;;5000469;28;20034;-60
2022/08/09 06:47:41;;;;;;;4.93;1.90;;;21.50;74.90;;;;;;4996989;28;20033;-61
2022/08/09 06:50:06;;;;;;;6.60;2.03;;;21.50;74.80;;;;;;4997697;28;20030;-61
2022/08/09 06:52:32;;;;;;;2.20;1.60;;;21.50;74.90;;;;;;4999491;28;20396;-60
2022/08/09 06:54:57;;;;;;;6.35;2.13;;;21.50;75.10;;;;;;4997753;28;20100;-60
2022/08/09 06:57:23;;;;;;;2.50;1.77;;;21.50;75.00;;;;;;4997428;28;20029;-60
2022/08/09 06:59:48;;;;;;;2.83;2.10;;;21.50;75.00;;;;;;4997661;28;20057;-60
2022/08/09 07:02:14;;;;;;;6.80;2.00;;;21.50;75.00;;;;;;4996318;28;20034;-60
2022/08/09 07:04:40;;;;;;;5.05;2.13;;;21.50;74.80;;;;;;4998678;28;20173;-60
2022/08/09 07:07:05;;;;;;;4.38;2.30;;;21.50;74.90;;;;;;5001604;28;20034;-60
2022/08/09 07:09:31;;;;;;;5.20;2.00;;;21.50;75.00;;;;;;5001244;28;20068;-60
2022/08/09 07:11:56;;;;;;;3.45;1.92;;;21.50;74.90;;;;;;4999042;28;20462;-60
2022/08/09 07:14:22;;;;;;;2.38;2.17;;;21.50;74.90;;;;;;4993597;28;20047;-60
2022/08/09 07:16:47;;;;;;;2.90;2.00;;;21.50;75.00;;;;;;4998494;28;20034;-60
2022/08/09 07:19:13;;;;;;;5.35;2.33;;;21.50;75.00;;;;;;4996117;28;20301;-61
2022/08/09 07:21:39;;;;;;;4.57;2.28;;;21.50;75.00;;;;;;4993488;28;20034;-60
2022/08/09 07:24:06;;;;;;;4.88;2.08;;;21.40;75.10;;;;;;4998190;28;20061;-60
2022/08/09 07:26:31;;;;;;;8.05;1.70;;;21.40;75.10;;;;;;4997828;28;20038;-60
2022/08/09 07:28:57;;;;;;;3.10;1.85;;;21.40;75.10;;;;;;4996325;28;20092;-60
2022/08/09 07:31:22;;;;;;;2.22;2.00;;;21.40;75.00;;;;;;4979191;28;20037;-61
2022/08/09 07:33:48;;;;;;;3.10;1.88;;;21.50;75.30;;;;;;4993465;28;20053;-60
2022/08/09 07:36:14;;;;;;;4.15;1.80;;;21.50;75.20;;;;;;4996883;28;20128;-60
2022/08/09 07:38:39;;;;;;;3.53;1.90;;;21.50;75.30;;;;;;4982743;28;20077;-61
2022/08/09 07:41:05;;;;;;;5.05;2.00;;;21.50;75.30;;;;;;5000151;28;20163;-60
2022/08/09 07:43:30;;;;;;;6.45;2.20;;;21.50;75.40;;;;;;4998740;28;20420;-60
2022/08/09 07:45:56;;;;;;;5.10;2.25;;;21.50;75.40;;;;;;4999466;28;20038;-60
2022/08/09 07:48:22;;;;;;;4.25;2.40;;;21.50;75.90;;;;;;4996107;28;20034;-60
2022/08/09 07:50:48;;;;;;;4.07;1.73;;;21.60;75.30;;;;;;4997146;28;20026;-60
2022/08/09 07:53:13;;;;;;;5.50;2.05;;;21.60;75.30;;;;;;4997263;28;20517;-60
2022/08/09 07:55:39;;;;;;;2.90;2.00;;;21.60;75.30;;;;;;4995945;28;20058;-60
2022/08/09 07:58:04;;;;;;;6.47;2.10;;;21.60;75.60;;;;;;4999117;28;20034;-60
2022/08/09 08:00:30;;;;;;;3.58;2.20;;;21.60;75.40;;;;;;4997082;28;20037;-60
2022/08/09 08:02:59;;;;;;;3.83;2.10;;;21.70;75.30;;;;;;4998046;28;20084;-60
2022/08/09 08:05:24;;;;;;;4.10;2.20;;;21.70;75.10;;;;;;4995681;28;20034;-60
2022/08/09 08:07:50;;;;;;;6.18;2.08;;;21.70;75.30;;;;;;4995698;28;20351;-60
2022/08/09 08:10:16;;;;;;;7.97;2.33;;;21.70;75.30;;;;;;4997562;28;20383;-60
2022/08/09 08:12:42;;;;;;;5.25;1.80;;;21.80;75.30;;;;;;4998211;28;20033;-60
2022/08/09 08:15:08;;;;;;;3.45;1.85;;;21.70;75.00;;;;;;4963041;28;20041;-60
2022/08/09 08:17:34;;;;;;;4.07;2.03;;;21.80;75.00;;;;;;4995669;28;20030;-59
2022/08/09 08:19:59;;;;;;;5.90;2.42;;;21.80;74.70;;;;;;4976053;28;20547;-61
2022/08/09 08:22:25;;;;;;;7.35;2.60;;;21.90;74.60;;;;;;4994651;28;20041;-60
2022/08/09 08:24:54;;;;;;;13.32;2.42;;;21.90;74.30;;;;;;4995680;28;20042;-62
2022/08/09 08:27:21;;;;;;;10.32;2.78;;;21.90;74.30;;;;;;4993764;28;20026;-61
2022/08/09 08:29:47;;;;;;;11.05;2.70;;;21.90;74.10;;;;;;4995787;28;20164;-62
2022/08/09 08:32:12;;;;;;;15.95;3.88;;;22.00;74.00;;;;;;4998428;28;20037;-60
2022/08/09 08:34:38;;;;;;;14.02;2.92;;;22.00;73.60;;;;;;4999915;28;20029;-60
2022/08/09 08:37:04;;;;;;;21.83;3.75;;;22.00;73.40;;;;;;4997331;28;20121;-60
2022/08/09 08:39:29;;;;;;;10.90;2.83;;;22.00;73.30;;;;;;4980983;28;20038;-60
2022/08/09 08:41:55;;;;;;;10.90;3.15;;;22.00;73.20;;;;;;4998908;28;20382;-59
2022/08/09 08:44:21;;;;;;;12.73;3.35;;;22.10;73.20;;;;;;5011770;28;20034;-60
2022/08/09 08:46:47;;;;;;;16.92;3.22;;;22.10;73.00;;;;;;4992432;28;20022;-60
2022/08/09 08:49:13;;;;;;;61.85;6.40;;;22.10;72.90;;;;;;4996265;28;21225;-61
2022/08/09 08:51:38;;;;;;;27.35;5.10;;;22.10;72.90;;;;;;4997420;28;20053;-60
2022/08/09 08:54:06;;;;;;;29.05;3.80;;;22.10;72.90;;;;;;4998857;28;20054;-61
2022/08/09 08:56:36;;;;;;;22.60;4.10;;;22.20;72.70;;;;;;4996572;28;20022;-62
2022/08/09 08:59:07;;;;;;;13.98;3.10;;;22.20;72.70;;;;;;4990955;28;20464;-61
2022/08/09 09:01:36;;;;;;;24.77;3.22;;;22.30;72.70;;;;;;4993050;28;21814;-60
2022/08/09 09:04:02;;;;;;;14.35;3.13;;;22.30;72.50;;;;;;4988155;28;20482;-60
2022/08/09 09:06:30;;;;;;;20.25;3.95;;;22.40;72.40;;;;;;4994047;28;20620;-62
2022/08/09 09:08:56;;;;;;;24.02;3.70;;;22.30;72.00;;;;;;4988694;28;20044;-61
2022/08/09 09:11:21;;;;;;;17.50;3.53;;;22.40;71.90;;;;;;5006687;28;20470;-60
2022/08/09 09:13:48;;;;;;;30.08;4.50;;;22.40;71.80;;;;;;4963961;28;20041;-60
2022/08/09 09:16:13;;;;;;;25.42;4.55;;;22.40;71.70;;;;;;4998906;28;20478;-61
2022/08/09 09:18:39;;;;;;;20.00;4.22;;;22.40;71.50;;;;;;5003680;28;20141;-60
2022/08/09 09:21:06;;;;;;;19.27;3.38;;;22.40;71.30;;;;;;4996985;28;20259;-60
2022/08/09 09:23:42;;;;;;;36.03;4.85;;;22.50;71.10;;;;;;5011051;28;20079;-60
2022/08/09 09:26:09;;;;;;;26.92;4.72;;;22.80;71.10;;;;;;4976767;28;20034;-60
2022/08/09 09:28:35;;;;;;;14.48;3.20;;;22.60;70.70;;;;;;4994539;28;20041;-61
2022/08/09 09:31:00;;;;;;;22.25;3.45;;;22.60;70.20;;;;;;4993365;28;20455;-61
2022/08/09 09:33:33;;;;;;;19.45;3.70;;;22.80;70.10;;;;;;4979667;28;20026;-60
2022/08/09 09:36:09;;;;;;;12.43;2.78;;;22.80;69.70;;;;;;4978075;28;20026;-60
2022/08/09 09:38:56;;;;;;;20.17;3.00;;;22.80;69.50;;;;;;4991661;28;20137;-60
2022/08/09 09:41:22;;;;;;;46.28;6.53;;;22.90;69.20;;;;;;5012586;28;20074;-62
2022/08/09 09:43:48;;;;;;;21.48;3.20;;;22.90;69.20;;;;;;4998193;28;20113;-60
2022/08/09 09:46:13;;;;;;;30.92;5.10;;;22.90;68.70;;;;;;4996655;28;20053;-63
2022/08/09 09:48:40;;;;;;;22.10;4.63;;;22.90;68.60;;;;;;4973608;28;20125;-60
2022/08/09 09:51:06;;;;;;;17.30;3.28;;;23.00;68.30;;;;;;4963404;28;20104;-62
2022/08/09 09:53:32;;;;;;;27.90;4.43;;;23.00;67.80;;;;;;5025361;28;20057;-60
2022/08/09 09:56:01;;;;;;;18.63;3.20;;;23.00;67.70;;;;;;5007501;28;20826;-61
2022/08/09 09:58:47;;;;;;;17.88;3.90;;;23.10;67.60;;;;;;4980171;28;20118;-60
2022/08/09 10:01:19;;;;;;;;;;;23.10;67.40;;;;;;4996917;28;20037;-60
2022/08/09 10:03:49;;;;;;;16.85;3.65;;;23.10;67.20;;;;;;4994532;28;19955;-60
2022/08/09 10:06:14;;;;;;;15.70;2.95;;;23.10;67.30;;;;;;4972460;28;20040;-60
2022/08/09 10:08:41;;;;;;;19.85;3.40;;;23.20;66.90;;;;;;4990365;28;20061;-60
2022/08/09 10:11:23;;;;;;;16.40;3.38;;;23.30;66.80;;;;;;4991983;28;20042;-63
2022/08/09 10:13:49;;;;;;;18.30;3.25;;;23.30;66.50;;;;;;4991072;28;20042;-60
2022/08/09 10:16:14;;;;;;;18.17;2.75;;;23.30;66.20;;;;;;4992396;28;20695;-60
2022/08/09 10:18:53;;;;;;;17.15;2.88;;;23.40;66.10;;;;;;4978070;28;20120;-59
2022/08/09 10:21:18;;;;;;;16.17;2.53;;;23.40;65.80;;;;;;4989756;28;20210;-60
2022/08/09 10:23:44;;;;;;;9.82;2.88;;;23.50;65.40;;;;;;4989481;28;20037;-61
2022/08/09 10:26:09;;;;;;;11.60;2.63;;;23.50;65.00;;;;;;5023848;28;20030;-61
2022/08/09 10:28:35;;;;;;;19.77;2.80;;;23.60;64.70;;;;;;4993027;28;20695;-60
2022/08/09 10:31:01;;;;;;;7.53;2.30;;;23.70;64.70;;;;;;4974183;28;20026;-61
2022/08/09 10:33:26;;;;;;;12.63;2.42;;;23.80;64.50;;;;;;4989265;28;20041;-61
2022/08/09 10:35:52;;;;;;;12.02;2.22;;;23.80;64.60;;;;;;5004715;28;21080;-60
2022/08/09 10:38:17;;;;;;;11.43;2.03;;;23.80;64.40;;;;;;5026008;28;20042;-60
2022/08/09 10:40:44;;;;;;;11.68;2.35;;;23.90;64.20;;;;;;4989458;28;20025;-61
2022/08/09 10:43:10;;;;;;;11.80;2.33;;;24.00;64.20;;;;;;4985175;28;20041;-60
2022/08/09 10:45:35;;;;;;;11.98;2.50;;;24.00;64.10;;;;;;4963776;28;20153;-60
2022/08/09 10:48:06;;;;;;;13.40;2.92;;;24.10;64.10;;;;;;5001751;28;20049;-60
2022/08/09 10:53:50;;;;;;;12.43;2.33;;;24.10;64.00;;;;;;4994468;28;20084;-60
2022/08/09 10:56:32;;;;;;;16.88;2.95;;;24.20;63.80;;;;;;4992996;28;20135;-61
2022/08/09 10:58:58;;;;;;;13.65;2.58;;;24.20;63.80;;;;;;4982692;28;20421;-60
2022/08/09 11:01:34;;;;;;;13.38;2.33;;;24.30;63.50;;;;;;4987962;28;20041;-61
2022/08/09 11:04:08;;;;;;;6.93;2.03;;;24.30;63.10;;;;;;4990389;28;20087;-60
2022/08/09 11:06:38;;;;;;;15.20;2.90;;;24.40;63.10;;;;;;4991946;28;20022;-62
2022/08/09 11:09:04;;;;;;;19.92;2.70;;;24.40;63.20;;;;;;4990837;28;20112;-61
2022/08/09 11:11:53;;;;;;;13.32;2.90;;;24.50;63.00;;;;;;4990780;28;20052;-60
2022/08/09 11:14:40;;;;;;;14.77;2.05;;;24.50;62.90;;;;;;4993648;28;20037;-60
2022/08/09 11:17:29;;;;;;;9.70;2.70;;;24.60;62.80;;;;;;4988115;28;20042;-61
2022/08/09 11:19:56;;;;;;;9.90;2.05;;;24.70;62.60;;;;;;4994625;28;20030;-61
2022/08/09 11:22:44;;;;;;;12.13;2.65;;;24.80;63.00;;;;;;4986030;28;20034;-61
2022/08/09 11:25:21;;;;;;;15.43;2.58;;;24.90;62.60;;;;;;4997056;28;20117;-60
2022/08/09 11:27:48;;;;;;;13.85;2.20;;;25.00;62.10;;;;;;4995365;28;20045;-61
2022/08/09 11:30:20;;;;;;;13.05;2.63;;;25.10;61.90;;;;;;4994995;28;20038;-60
2022/08/09 11:32:49;;;;;;;11.82;2.17;;;25.10;61.60;;;;;;4994806;28;20025;-60
2022/08/09 11:35:26;;;;;;;9.38;2.40;;;25.20;61.50;;;;;;4995672;28;20030;-60
2022/08/09 11:37:56;;;;;;;9.60;2.63;;;25.30;61.40;;;;;;4990032;28;20104;-61
2022/08/09 11:40:21;;;;;;;12.20;2.70;;;25.30;61.20;;;;;;5016527;28;20018;-61
2022/08/09 11:42:52;;;;;;;10.63;2.05;;;25.40;61.20;;;;;;4996373;28;20872;-61
2022/08/09 11:45:25;;;;;;;9.55;2.08;;;25.50;60.90;;;;;;4980391;28;20025;-61
2022/08/09 11:47:52;;;;;;;10.77;2.38;;;25.60;60.40;;;;;;4993382;28;20501;-62
2022/08/09 11:50:17;;;;;;;10.90;2.08;;;25.70;60.40;;;;;;4990431;28;20509;-61
2022/08/09 11:52:58;;;;;;;16.00;2.17;;;25.70;60.10;;;;;;4995160;28;20044;-61
2022/08/09 11:55:32;;;;;;;9.45;2.28;;;25.90;60.00;;;;;;4992406;28;20125;-61
2022/08/09 11:58:14;;;;;;;9.73;1.88;;;25.90;59.10;;;;;;4987707;28;20041;-61
2022/08/09 12:00:58;;;;;;;4.63;1.70;;;26.00;58.60;;;;;;4991094;28;20041;-61
2022/08/09 12:03:24;;;;;;;5.40;1.45;;;26.00;58.30;;;;;;4991330;28;20038;-60
2022/08/09 12:05:53;;;;;;;8.85;1.90;;;26.10;58.30;;;;;;4977993;28;20072;-60
2022/08/09 12:08:19;;;;;;;4.40;1.40;;;26.20;58.30;;;;;;4994059;28;20617;-61
2022/08/09 12:10:46;;;;;;;6.05;1.70;;;26.20;57.80;;;;;;4989009;28;20038;-61
2022/08/09 12:13:12;;;;;;;5.65;1.80;;;26.20;57.60;;;;;;4991529;28;20029;-60
2022/08/09 12:15:37;;;;;;;8.40;1.63;;;26.30;57.70;;;;;;4997296;28;20018;-61
2022/08/09 12:18:03;;;;;;;14.35;1.95;;;26.40;57.70;;;;;;4994113;28;20029;-61
2022/08/09 12:20:29;;;;;;;8.15;1.98;;;26.40;57.60;;;;;;4995665;28;20051;-61
2022/08/09 12:23:00;;;;;;;16.70;2.42;;;26.50;58.10;;;;;;4990858;28;20092;-61
2022/08/09 12:25:26;;;;;;;6.50;1.77;;;26.50;57.30;;;;;;4989080;28;20084;-61
2022/08/09 12:28:15;;;;;;;10.85;1.73;;;26.60;57.00;;;;;;4989924;28;20103;-61
2022/08/09 12:30:41;;;;;;;61.13;6.25;;;26.60;56.30;;;;;;4993031;28;20046;-60
2022/08/09 12:33:07;;;;;;;11.90;2.85;;;26.70;55.90;;;;;;4994476;28;20545;-60
2022/08/09 12:35:32;;;;;;;17.55;1.95;;;26.70;56.10;;;;;;4996221;28;20072;-61
2022/08/09 12:37:58;;;;;;;8.65;2.00;;;26.80;55.50;;;;;;4990704;28;20101;-61
2022/08/09 12:40:27;;;;;;;13.77;2.13;;;26.80;55.20;;;;;;4993305;28;20386;-61
2022/08/09 12:42:53;;;;;;;61.40;7.05;;;26.90;55.00;;;;;;4986441;28;20152;-61
2022/08/09 12:45:19;;;;;;;8.88;2.40;;;26.90;54.40;;;;;;4968666;28;20061;-62
2022/08/09 12:47:45;;;;;;;15.20;2.58;;;26.90;53.50;;;;;;4974155;28;20030;-61
2022/08/09 12:50:17;;;;;;;10.57;1.77;;;27.00;53.50;;;;;;5009611;28;20040;-61